sensor_id;sensor_type;location;lat;lon;timestamp;P1;durP1;ratioP1;P2;durP2;ratioP2
67508;SDS011;54354;44.724;11.284;2023-02-01T00:00:20;49.90;;;31.10;;
67508;SDS011;54354;44.724;11.284;2023-02-01T00:02:46;47.40;;;30.25;;
67508;SDS011;54354;44.724;11.284;2023-02-01T00:05:11;47.28;;;30.60;;
67508;SDS011;54354;44.724;11.284;2023-02-01T00:07:37;54.17;;;32.13;;
67508;SDS011;54354;44.724;11.284;2023-02-01T00:10:03;48.25;;;30.08;;
67508;SDS011;54354;44.724;11.284;2023-02-01T00:12:30;48.60;;;30.02;;
67508;SDS011;54354;44.724;11.284;2023-02-01T00:14:56;43.17;;;27.83;;
67508;SDS011;54354;44.724;11.284;2023-02-01T00:17:22;44.60;;;27.30;;
67508;SDS011;54354;44.724;11.284;2023-02-01T00:19:47;42.70;;;27.17;;
67508;SDS011;54354;44.724;11.284;2023-02-01T00:22:13;40.95;;;25.52;;
67508;SDS011;54354;44.724;11.284;2023-02-01T00:24:38;42.60;;;25.20;;
67508;SDS011;54354;44.724;11.284;2023-02-01T00:27:04;37.90;;;25.40;;
67508;SDS011;54354;44.724;11.284;2023-02-01T00:29:29;36.05;;;24.52;;
67508;SDS011;54354;44.724;11.284;2023-02-01T00:31:54;35.00;;;24.33;;
67508;SDS011;54354;44.724;11.284;2023-02-01T00:34:20;36.55;;;23.42;;
67508;SDS011;54354;44.724;11.284;2023-02-01T00:36:46;36.88;;;23.00;;
67508;SDS011;54354;44.724;11.284;2023-02-01T00:39:12;32.35;;;22.70;;
67508;SDS011;54354;44.724;11.284;2023-02-01T00:41:38;33.00;;;22.20;;
67508;SDS011;54354;44.724;11.284;2023-02-01T00:44:05;35.30;;;20.73;;
67508;SDS011;54354;44.724;11.284;2023-02-01T00:46:31;33.15;;;20.45;;
67508;SDS011;54354;44.724;11.284;2023-02-01T00:48:56;31.08;;;20.67;;
67508;SDS011;54354;44.724;11.284;2023-02-01T00:51:23;33.00;;;20.23;;
67508;SDS011;54354;44.724;11.284;2023-02-01T00:53:51;30.40;;;19.27;;
67508;SDS011;54354;44.724;11.284;2023-02-01T00:56:17;28.58;;;18.38;;
67508;SDS011;54354;44.724;11.284;2023-02-01T00:58:43;27.83;;;17.92;;
67508;SDS011;54354;44.724;11.284;2023-02-01T01:01:12;25.88;;;17.23;;
67508;SDS011;54354;44.724;11.284;2023-02-01T01:03:42;23.60;;;16.25;;
67508;SDS011;54354;44.724;11.284;2023-02-01T01:06:11;25.58;;;16.35;;
67508;SDS011;54354;44.724;11.284;2023-02-01T01:08:39;26.08;;;16.63;;
67508;SDS011;54354;44.724;11.284;2023-02-01T01:11:09;21.15;;;15.25;;
67508;SDS011;54354;44.724;11.284;2023-02-01T01:13:37;23.95;;;14.75;;
67508;SDS011;54354;44.724;11.284;2023-02-01T01:16:03;20.65;;;14.93;;
67508;SDS011;54354;44.724;11.284;2023-02-01T01:18:30;20.98;;;13.38;;
67508;SDS011;54354;44.724;11.284;2023-02-01T01:20:57;21.33;;;14.85;;
67508;SDS011;54354;44.724;11.284;2023-02-01T01:23:23;23.58;;;14.88;;
67508;SDS011;54354;44.724;11.284;2023-02-01T01:25:49;21.63;;;15.27;;
67508;SDS011;54354;44.724;11.284;2023-02-01T01:28:14;24.27;;;15.63;;
67508;SDS011;54354;44.724;11.284;2023-02-01T01:30:40;23.13;;;14.80;;
67508;SDS011;54354;44.724;11.284;2023-02-01T01:33:05;21.27;;;14.10;;
67508;SDS011;54354;44.724;11.284;2023-02-01T01:35:31;18.92;;;12.48;;
67508;SDS011;54354;44.724;11.284;2023-02-01T01:37:58;21.30;;;13.38;;
67508;SDS011;54354;44.724;11.284;2023-02-01T01:40:25;20.98;;;13.25;;
67508;SDS011;54354;44.724;11.284;2023-02-01T01:42:51;19.63;;;13.45;;
67508;SDS011;54354;44.724;11.284;2023-02-01T01:47:56;19.70;;;12.68;;
67508;SDS011;54354;44.724;11.284;2023-02-01T01:50:29;20.35;;;12.90;;
67508;SDS011;54354;44.724;11.284;2023-02-01T01:52:57;18.40;;;12.88;;
67508;SDS011;54354;44.724;11.284;2023-02-01T01:55:26;19.13;;;13.43;;
67508;SDS011;54354;44.724;11.284;2023-02-01T01:58:02;23.90;;;15.68;;
67508;SDS011;54354;44.724;11.284;2023-02-01T02:00:33;33.57;;;19.50;;
67508;SDS011;54354;44.724;11.284;2023-02-01T02:03:11;29.60;;;18.95;;
67508;SDS011;54354;44.724;11.284;2023-02-01T02:05:59;31.77;;;20.08;;
67508;SDS011;54354;44.724;11.284;2023-02-01T02:08:27;30.38;;;21.45;;
67508;SDS011;54354;44.724;11.284;2023-02-01T02:10:53;33.17;;;22.13;;
67508;SDS011;54354;44.724;11.284;2023-02-01T02:13:30;42.10;;;25.33;;
67508;SDS011;54354;44.724;11.284;2023-02-01T02:16:03;38.53;;;25.92;;
67508;SDS011;54354;44.724;11.284;2023-02-01T02:37:44;40.30;;;24.38;;
67508;SDS011;54354;44.724;11.284;2023-02-01T02:40:42;33.75;;;21.58;;
67508;SDS011;54354;44.724;11.284;2023-02-01T02:43:18;34.00;;;22.50;;
67508;SDS011;54354;44.724;11.284;2023-02-01T02:54:26;32.33;;;21.63;;
67508;SDS011;54354;44.724;11.284;2023-02-01T02:57:17;36.63;;;22.45;;
67508;SDS011;54354;44.724;11.284;2023-02-01T03:00:09;35.45;;;22.05;;
67508;SDS011;54354;44.724;11.284;2023-02-01T03:02:56;34.97;;;21.73;;
67508;SDS011;54354;44.724;11.284;2023-02-01T03:05:42;32.60;;;20.35;;
67508;SDS011;54354;44.724;11.284;2023-02-01T03:08:23;30.10;;;20.38;;
67508;SDS011;54354;44.724;11.284;2023-02-01T03:21:35;32.03;;;21.02;;
67508;SDS011;54354;44.724;11.284;2023-02-01T03:24:08;32.10;;;21.60;;
67508;SDS011;54354;44.724;11.284;2023-02-01T03:26:36;31.85;;;21.85;;
67508;SDS011;54354;44.724;11.284;2023-02-01T03:29:08;35.63;;;22.65;;
67508;SDS011;54354;44.724;11.284;2023-02-01T03:31:41;35.40;;;23.33;;
67508;SDS011;54354;44.724;11.284;2023-02-01T03:34:07;34.13;;;22.77;;
67508;SDS011;54354;44.724;11.284;2023-02-01T03:36:45;31.65;;;23.25;;
67508;SDS011;54354;44.724;11.284;2023-02-01T03:46:46;34.72;;;22.55;;
67508;SDS011;54354;44.724;11.284;2023-02-01T03:49:32;32.63;;;21.55;;
67508;SDS011;54354;44.724;11.284;2023-02-01T03:52:02;33.03;;;22.35;;
67508;SDS011;54354;44.724;11.284;2023-02-01T03:54:32;30.83;;;21.90;;
67508;SDS011;54354;44.724;11.284;2023-02-01T03:56:59;32.88;;;22.65;;
67508;SDS011;54354;44.724;11.284;2023-02-01T03:59:29;29.38;;;20.98;;
67508;SDS011;54354;44.724;11.284;2023-02-01T04:01:55;34.35;;;22.50;;
67508;SDS011;54354;44.724;11.284;2023-02-01T04:04:21;30.73;;;20.55;;
67508;SDS011;54354;44.724;11.284;2023-02-01T04:06:50;30.30;;;20.27;;
67508;SDS011;54354;44.724;11.284;2023-02-01T04:09:16;31.60;;;20.40;;
67508;SDS011;54354;44.724;11.284;2023-02-01T04:11:42;30.85;;;21.20;;
67508;SDS011;54354;44.724;11.284;2023-02-01T04:14:08;31.90;;;20.58;;
67508;SDS011;54354;44.724;11.284;2023-02-01T04:16:34;31.83;;;21.40;;
67508;SDS011;54354;44.724;11.284;2023-02-01T04:19:00;30.92;;;20.63;;
67508;SDS011;54354;44.724;11.284;2023-02-01T04:21:26;33.38;;;21.23;;
67508;SDS011;54354;44.724;11.284;2023-02-01T04:23:52;35.13;;;21.98;;
67508;SDS011;54354;44.724;11.284;2023-02-01T04:26:18;31.90;;;20.83;;
67508;SDS011;54354;44.724;11.284;2023-02-01T04:28:45;33.03;;;21.40;;
67508;SDS011;54354;44.724;11.284;2023-02-01T04:31:15;31.85;;;20.77;;
67508;SDS011;54354;44.724;11.284;2023-02-01T04:33:42;34.10;;;21.10;;
67508;SDS011;54354;44.724;11.284;2023-02-01T04:36:08;30.10;;;19.67;;
67508;SDS011;54354;44.724;11.284;2023-02-01T04:38:34;34.05;;;20.08;;
67508;SDS011;54354;44.724;11.284;2023-02-01T04:41:00;31.48;;;19.10;;
67508;SDS011;54354;44.724;11.284;2023-02-01T04:43:25;34.60;;;19.83;;
67508;SDS011;54354;44.724;11.284;2023-02-01T04:45:51;32.28;;;20.77;;
67508;SDS011;54354;44.724;11.284;2023-02-01T04:48:18;30.05;;;20.17;;
67508;SDS011;54354;44.724;11.284;2023-02-01T04:50:45;33.72;;;19.73;;
67508;SDS011;54354;44.724;11.284;2023-02-01T04:53:15;33.78;;;20.00;;
67508;SDS011;54354;44.724;11.284;2023-02-01T04:55:41;30.73;;;20.50;;
67508;SDS011;54354;44.724;11.284;2023-02-01T04:58:08;28.23;;;20.15;;
67508;SDS011;54354;44.724;11.284;2023-02-01T05:00:33;29.73;;;19.60;;
67508;SDS011;54354;44.724;11.284;2023-02-01T05:02:59;31.63;;;20.65;;
67508;SDS011;54354;44.724;11.284;2023-02-01T05:05:24;28.98;;;19.73;;
67508;SDS011;54354;44.724;11.284;2023-02-01T05:07:51;30.58;;;20.80;;
67508;SDS011;54354;44.724;11.284;2023-02-01T05:10:16;33.00;;;21.88;;
67508;SDS011;54354;44.724;11.284;2023-02-01T05:12:43;29.95;;;20.50;;
67508;SDS011;54354;44.724;11.284;2023-02-01T05:15:28;32.58;;;19.77;;
67508;SDS011;54354;44.724;11.284;2023-02-01T05:17:54;30.45;;;19.20;;
67508;SDS011;54354;44.724;11.284;2023-02-01T05:20:19;32.00;;;19.10;;
67508;SDS011;54354;44.724;11.284;2023-02-01T05:22:45;31.15;;;18.92;;
67508;SDS011;54354;44.724;11.284;2023-02-01T05:25:10;30.10;;;19.00;;
67508;SDS011;54354;44.724;11.284;2023-02-01T05:27:36;30.10;;;19.02;;
67508;SDS011;54354;44.724;11.284;2023-02-01T05:30:02;28.90;;;19.15;;
67508;SDS011;54354;44.724;11.284;2023-02-01T05:32:29;32.72;;;18.65;;
67508;SDS011;54354;44.724;11.284;2023-02-01T05:34:55;30.40;;;18.63;;
67508;SDS011;54354;44.724;11.284;2023-02-01T05:37:20;26.20;;;17.55;;
67508;SDS011;54354;44.724;11.284;2023-02-01T05:39:45;26.48;;;17.55;;
67508;SDS011;54354;44.724;11.284;2023-02-01T05:42:11;28.85;;;17.63;;
67508;SDS011;54354;44.724;11.284;2023-02-01T05:44:36;30.02;;;18.17;;
67508;SDS011;54354;44.724;11.284;2023-02-01T05:47:02;27.30;;;17.02;;
67508;SDS011;54354;44.724;11.284;2023-02-01T05:49:27;27.65;;;17.92;;
67508;SDS011;54354;44.724;11.284;2023-02-01T05:51:53;27.42;;;16.67;;
67508;SDS011;54354;44.724;11.284;2023-02-01T05:54:18;23.92;;;16.20;;
67508;SDS011;54354;44.724;11.284;2023-02-01T05:56:44;25.55;;;15.88;;
67508;SDS011;54354;44.724;11.284;2023-02-01T05:59:09;23.08;;;15.77;;
67508;SDS011;54354;44.724;11.284;2023-02-01T06:01:35;26.05;;;16.17;;
67508;SDS011;54354;44.724;11.284;2023-02-01T06:04:01;25.20;;;16.55;;
67508;SDS011;54354;44.724;11.284;2023-02-01T06:06:26;22.77;;;14.75;;
67508;SDS011;54354;44.724;11.284;2023-02-01T06:08:52;22.20;;;15.25;;
67508;SDS011;54354;44.724;11.284;2023-02-01T06:11:17;22.92;;;15.35;;
67508;SDS011;54354;44.724;11.284;2023-02-01T06:13:42;21.33;;;13.82;;
67508;SDS011;54354;44.724;11.284;2023-02-01T06:16:08;21.20;;;13.68;;
67508;SDS011;54354;44.724;11.284;2023-02-01T06:18:34;22.15;;;13.35;;
67508;SDS011;54354;44.724;11.284;2023-02-01T06:21:00;26.73;;;13.73;;
67508;SDS011;54354;44.724;11.284;2023-02-01T06:23:26;21.13;;;13.95;;
67508;SDS011;54354;44.724;11.284;2023-02-01T06:25:58;23.00;;;13.38;;
67508;SDS011;54354;44.724;11.284;2023-02-01T06:28:26;23.15;;;13.77;;
67508;SDS011;54354;44.724;11.284;2023-02-01T06:30:53;20.88;;;13.25;;
67508;SDS011;54354;44.724;11.284;2023-02-01T06:33:18;21.23;;;13.93;;
67508;SDS011;54354;44.724;11.284;2023-02-01T06:35:44;17.08;;;13.45;;
67508;SDS011;54354;44.724;11.284;2023-02-01T06:38:13;23.40;;;14.48;;
67508;SDS011;54354;44.724;11.284;2023-02-01T06:40:39;24.88;;;14.52;;
67508;SDS011;54354;44.724;11.284;2023-02-01T06:43:07;25.25;;;15.77;;
67508;SDS011;54354;44.724;11.284;2023-02-01T06:45:33;27.30;;;16.08;;
67508;SDS011;54354;44.724;11.284;2023-02-01T06:47:58;35.00;;;20.90;;
67508;SDS011;54354;44.724;11.284;2023-02-01T06:50:25;35.83;;;20.35;;
67508;SDS011;54354;44.724;11.284;2023-02-01T06:52:51;41.05;;;18.65;;
67508;SDS011;54354;44.724;11.284;2023-02-01T06:55:17;29.88;;;18.45;;
67508;SDS011;54354;44.724;11.284;2023-02-01T06:57:42;25.98;;;14.80;;
67508;SDS011;54354;44.724;11.284;2023-02-01T07:00:08;19.08;;;11.60;;
67508;SDS011;54354;44.724;11.284;2023-02-01T07:02:34;28.20;;;15.02;;
67508;SDS011;54354;44.724;11.284;2023-02-01T07:04:59;36.42;;;16.85;;
67508;SDS011;54354;44.724;11.284;2023-02-01T07:07:25;33.42;;;16.40;;
67508;SDS011;54354;44.724;11.284;2023-02-01T07:09:50;25.77;;;15.80;;
67508;SDS011;54354;44.724;11.284;2023-02-01T07:12:16;30.70;;;14.40;;
67508;SDS011;54354;44.724;11.284;2023-02-01T07:14:42;25.40;;;14.80;;
67508;SDS011;54354;44.724;11.284;2023-02-01T07:17:07;31.88;;;14.98;;
67508;SDS011;54354;44.724;11.284;2023-02-01T07:19:33;30.67;;;15.10;;
67508;SDS011;54354;44.724;11.284;2023-02-01T07:21:59;26.17;;;14.93;;
67508;SDS011;54354;44.724;11.284;2023-02-01T07:24:25;38.65;;;15.18;;
67508;SDS011;54354;44.724;11.284;2023-02-01T07:26:50;25.70;;;15.20;;
67508;SDS011;54354;44.724;11.284;2023-02-01T07:29:16;32.25;;;16.73;;
67508;SDS011;54354;44.724;11.284;2023-02-01T07:31:43;27.90;;;16.35;;
67508;SDS011;54354;44.724;11.284;2023-02-01T07:34:08;27.35;;;15.95;;
67508;SDS011;54354;44.724;11.284;2023-02-01T07:36:34;26.05;;;15.57;;
67508;SDS011;54354;44.724;11.284;2023-02-01T07:39:01;21.73;;;13.93;;
67508;SDS011;54354;44.724;11.284;2023-02-01T07:41:28;22.58;;;13.70;;
67508;SDS011;54354;44.724;11.284;2023-02-01T07:43:53;39.55;;;14.00;;
67508;SDS011;54354;44.724;11.284;2023-02-01T07:46:19;23.45;;;12.57;;
67508;SDS011;54354;44.724;11.284;2023-02-01T07:48:45;21.50;;;12.23;;
67508;SDS011;54354;44.724;11.284;2023-02-01T07:51:12;21.60;;;12.02;;
67508;SDS011;54354;44.724;11.284;2023-02-01T07:53:39;26.23;;;13.25;;
67508;SDS011;54354;44.724;11.284;2023-02-01T07:56:11;30.77;;;14.20;;
67508;SDS011;54354;44.724;11.284;2023-02-01T07:58:41;35.83;;;15.88;;
67508;SDS011;54354;44.724;11.284;2023-02-01T08:01:14;32.83;;;16.35;;
67508;SDS011;54354;44.724;11.284;2023-02-01T08:03:44;34.33;;;16.80;;
67508;SDS011;54354;44.724;11.284;2023-02-01T08:06:10;31.70;;;14.95;;
67508;SDS011;54354;44.724;11.284;2023-02-01T08:08:36;24.80;;;14.82;;
67508;SDS011;54354;44.724;11.284;2023-02-01T08:11:02;30.15;;;17.05;;
67508;SDS011;54354;44.724;11.284;2023-02-01T08:13:29;32.42;;;18.77;;
67508;SDS011;54354;44.724;11.284;2023-02-01T08:15:59;37.15;;;20.95;;
67508;SDS011;54354;44.724;11.284;2023-02-01T08:18:25;35.25;;;20.60;;
67508;SDS011;54354;44.724;11.284;2023-02-01T08:20:51;45.88;;;24.73;;
67508;SDS011;54354;44.724;11.284;2023-02-01T08:23:17;39.17;;;23.23;;
67508;SDS011;54354;44.724;11.284;2023-02-01T08:25:43;40.45;;;22.08;;
67508;SDS011;54354;44.724;11.284;2023-02-01T08:28:09;33.50;;;18.95;;
67508;SDS011;54354;44.724;11.284;2023-02-01T08:30:36;30.17;;;17.25;;
67508;SDS011;54354;44.724;11.284;2023-02-01T08:33:03;30.42;;;15.95;;
67508;SDS011;54354;44.724;11.284;2023-02-01T08:35:31;26.08;;;14.68;;
67508;SDS011;54354;44.724;11.284;2023-02-01T08:37:56;27.73;;;15.25;;
67508;SDS011;54354;44.724;11.284;2023-02-01T08:40:22;26.30;;;15.15;;
67508;SDS011;54354;44.724;11.284;2023-02-01T08:42:47;29.45;;;15.68;;
67508;SDS011;54354;44.724;11.284;2023-02-01T08:45:16;30.67;;;17.13;;
67508;SDS011;54354;44.724;11.284;2023-02-01T08:47:54;24.67;;;15.48;;
67508;SDS011;54354;44.724;11.284;2023-02-01T08:50:19;34.85;;;16.63;;
67508;SDS011;54354;44.724;11.284;2023-02-01T08:52:46;29.77;;;17.60;;
67508;SDS011;54354;44.724;11.284;2023-02-01T08:55:12;32.25;;;18.50;;
67508;SDS011;54354;44.724;11.284;2023-02-01T08:57:38;26.98;;;18.08;;
67508;SDS011;54354;44.724;11.284;2023-02-01T09:00:04;32.78;;;20.17;;
67508;SDS011;54354;44.724;11.284;2023-02-01T09:02:32;31.92;;;19.45;;
67508;SDS011;54354;44.724;11.284;2023-02-01T09:04:57;33.40;;;20.25;;
67508;SDS011;54354;44.724;11.284;2023-02-01T09:07:23;34.88;;;20.08;;
67508;SDS011;54354;44.724;11.284;2023-02-01T09:09:48;36.05;;;19.30;;
67508;SDS011;54354;44.724;11.284;2023-02-01T09:12:14;33.60;;;20.30;;
67508;SDS011;54354;44.724;11.284;2023-02-01T09:14:39;40.10;;;22.55;;
67508;SDS011;54354;44.724;11.284;2023-02-01T09:17:05;40.05;;;23.08;;
67508;SDS011;54354;44.724;11.284;2023-02-01T09:19:31;38.42;;;23.67;;
67508;SDS011;54354;44.724;11.284;2023-02-01T09:21:56;41.00;;;23.70;;
67508;SDS011;54354;44.724;11.284;2023-02-01T09:24:22;43.33;;;24.88;;
67508;SDS011;54354;44.724;11.284;2023-02-01T09:26:47;42.40;;;25.63;;
67508;SDS011;54354;44.724;11.284;2023-02-01T09:29:14;48.50;;;28.27;;
67508;SDS011;54354;44.724;11.284;2023-02-01T09:31:39;45.75;;;27.48;;
67508;SDS011;54354;44.724;11.284;2023-02-01T09:34:06;45.08;;;26.40;;
67508;SDS011;54354;44.724;11.284;2023-02-01T09:36:32;49.33;;;26.83;;
67508;SDS011;54354;44.724;11.284;2023-02-01T09:38:58;46.10;;;26.38;;
67508;SDS011;54354;44.724;11.284;2023-02-01T09:46:54;45.20;;;26.85;;
67508;SDS011;54354;44.724;11.284;2023-02-01T09:49:34;45.65;;;27.90;;
67508;SDS011;54354;44.724;11.284;2023-02-01T09:52:07;47.72;;;30.00;;
67508;SDS011;54354;44.724;11.284;2023-02-01T09:57:24;49.97;;;30.75;;
67508;SDS011;54354;44.724;11.284;2023-02-01T10:00:14;52.60;;;33.17;;
67508;SDS011;54354;44.724;11.284;2023-02-01T10:02:43;60.50;;;36.03;;
67508;SDS011;54354;44.724;11.284;2023-02-01T10:05:12;64.35;;;36.70;;
67508;SDS011;54354;44.724;11.284;2023-02-01T10:07:43;61.45;;;35.00;;
67508;SDS011;54354;44.724;11.284;2023-02-01T10:10:15;62.08;;;36.03;;
67508;SDS011;54354;44.724;11.284;2023-02-01T10:24:22;77.13;;;44.30;;
67508;SDS011;54354;44.724;11.284;2023-02-01T10:27:14;70.60;;;40.85;;
67508;SDS011;54354;44.724;11.284;2023-02-01T10:29:45;70.38;;;41.25;;
67508;SDS011;54354;44.724;11.284;2023-02-01T10:32:19;73.93;;;40.47;;
67508;SDS011;54354;44.724;11.284;2023-02-01T10:34:49;64.82;;;40.00;;
67508;SDS011;54354;44.724;11.284;2023-02-01T10:37:25;63.85;;;37.80;;
67508;SDS011;54354;44.724;11.284;2023-02-01T10:39:57;61.70;;;37.60;;
67508;SDS011;54354;44.724;11.284;2023-02-01T10:42:27;65.80;;;37.38;;
67508;SDS011;54354;44.724;11.284;2023-02-01T10:44:54;64.60;;;38.25;;
67508;SDS011;54354;44.724;11.284;2023-02-01T10:47:22;58.97;;;37.13;;
67508;SDS011;54354;44.724;11.284;2023-02-01T10:49:54;59.53;;;37.17;;
67508;SDS011;54354;44.724;11.284;2023-02-01T10:54:56;71.78;;;42.03;;
67508;SDS011;54354;44.724;11.284;2023-02-01T10:57:57;61.25;;;38.22;;
67508;SDS011;54354;44.724;11.284;2023-02-01T11:00:25;59.30;;;37.13;;
67508;SDS011;54354;44.724;11.284;2023-02-01T11:02:51;68.75;;;39.33;;
67508;SDS011;54354;44.724;11.284;2023-02-01T11:05:17;68.22;;;39.90;;
67508;SDS011;54354;44.724;11.284;2023-02-01T11:07:47;65.97;;;40.28;;
67508;SDS011;54354;44.724;11.284;2023-02-01T11:10:34;61.08;;;38.20;;
67508;SDS011;54354;44.724;11.284;2023-02-01T11:13:04;65.20;;;39.72;;
67508;SDS011;54354;44.724;11.284;2023-02-01T11:15:30;68.00;;;39.75;;
67508;SDS011;54354;44.724;11.284;2023-02-01T11:17:56;60.92;;;38.15;;
67508;SDS011;54354;44.724;11.284;2023-02-01T11:20:39;64.50;;;39.13;;
67508;SDS011;54354;44.724;11.284;2023-02-01T11:23:12;61.65;;;38.53;;
67508;SDS011;54354;44.724;11.284;2023-02-01T11:25:47;66.05;;;39.15;;
67508;SDS011;54354;44.724;11.284;2023-02-01T11:28:14;71.80;;;40.42;;
67508;SDS011;54354;44.724;11.284;2023-02-01T11:30:42;70.57;;;39.15;;
67508;SDS011;54354;44.724;11.284;2023-02-01T11:33:15;72.00;;;37.60;;
67508;SDS011;54354;44.724;11.284;2023-02-01T11:35:43;65.10;;;39.10;;
67508;SDS011;54354;44.724;11.284;2023-02-01T11:38:23;60.58;;;37.55;;
67508;SDS011;54354;44.724;11.284;2023-02-01T11:40:53;60.17;;;36.65;;
67508;SDS011;54354;44.724;11.284;2023-02-01T11:45:54;60.03;;;36.50;;
67508;SDS011;54354;44.724;11.284;2023-02-01T11:48:25;67.90;;;36.35;;
67508;SDS011;54354;44.724;11.284;2023-02-01T11:50:56;69.00;;;36.47;;
67508;SDS011;54354;44.724;11.284;2023-02-01T11:56:41;65.28;;;35.58;;
67508;SDS011;54354;44.724;11.284;2023-02-01T11:59:52;56.85;;;34.28;;
67508;SDS011;54354;44.724;11.284;2023-02-01T12:05:14;58.85;;;35.15;;
67508;SDS011;54354;44.724;11.284;2023-02-01T12:08:27;55.38;;;35.10;;
67508;SDS011;54354;44.724;11.284;2023-02-01T12:11:21;59.55;;;34.08;;
67508;SDS011;54354;44.724;11.284;2023-02-01T12:13:53;56.63;;;35.25;;
67508;SDS011;54354;44.724;11.284;2023-02-01T12:33:30;64.13;;;36.10;;
67508;SDS011;54354;44.724;11.284;2023-02-01T12:43:49;50.05;;;30.48;;
67508;SDS011;54354;44.724;11.284;2023-02-01T12:46:24;52.60;;;32.00;;
67508;SDS011;54354;44.724;11.284;2023-02-01T12:49:10;56.70;;;31.20;;
67508;SDS011;54354;44.724;11.284;2023-02-01T12:51:39;50.53;;;31.08;;
67508;SDS011;54354;44.724;11.284;2023-02-01T12:54:18;52.53;;;29.50;;
67508;SDS011;54354;44.724;11.284;2023-02-01T12:57:05;48.25;;;28.20;;
67508;SDS011;54354;44.724;11.284;2023-02-01T12:59:42;49.38;;;27.98;;
67508;SDS011;54354;44.724;11.284;2023-02-01T13:02:27;45.20;;;25.98;;
67508;SDS011;54354;44.724;11.284;2023-02-01T13:05:20;41.78;;;25.02;;
67508;SDS011;54354;44.724;11.284;2023-02-01T13:07:47;46.30;;;25.20;;
67508;SDS011;54354;44.724;11.284;2023-02-01T13:13:28;37.53;;;24.10;;
67508;SDS011;54354;44.724;11.284;2023-02-01T13:16:42;44.33;;;23.83;;
67508;SDS011;54354;44.724;11.284;2023-02-01T13:19:08;38.05;;;22.73;;
67508;SDS011;54354;44.724;11.284;2023-02-01T13:21:42;39.35;;;22.55;;
67508;SDS011;54354;44.724;11.284;2023-02-01T13:26:57;38.55;;;21.90;;
67508;SDS011;54354;44.724;11.284;2023-02-01T13:29:23;35.42;;;21.13;;
67508;SDS011;54354;44.724;11.284;2023-02-01T13:34:53;36.85;;;18.27;;
67508;SDS011;54354;44.724;11.284;2023-02-01T13:45:41;32.60;;;18.38;;
67508;SDS011;54354;44.724;11.284;2023-02-01T13:48:58;31.83;;;17.73;;
67508;SDS011;54354;44.724;11.284;2023-02-01T13:51:06;30.65;;;16.45;;
67508;SDS011;54354;44.724;11.284;2023-02-01T13:53:35;33.80;;;16.83;;
67508;SDS011;54354;44.724;11.284;2023-02-01T13:56:03;28.80;;;16.20;;
67508;SDS011;54354;44.724;11.284;2023-02-01T13:58:37;29.58;;;16.17;;
67508;SDS011;54354;44.724;11.284;2023-02-01T14:03:57;27.10;;;16.55;;
67508;SDS011;54354;44.724;11.284;2023-02-01T14:16:39;27.77;;;15.63;;
67508;SDS011;54354;44.724;11.284;2023-02-01T14:19:09;29.50;;;16.02;;
67508;SDS011;54354;44.724;11.284;2023-02-01T14:21:46;33.65;;;15.75;;
67508;SDS011;54354;44.724;11.284;2023-02-01T14:24:26;32.72;;;16.30;;
67508;SDS011;54354;44.724;11.284;2023-02-01T14:26:55;28.30;;;16.38;;
67508;SDS011;54354;44.724;11.284;2023-02-01T14:31:52;29.88;;;16.17;;
67508;SDS011;54354;44.724;11.284;2023-02-01T14:37:32;26.95;;;15.63;;
67508;SDS011;54354;44.724;11.284;2023-02-01T14:55:41;29.95;;;16.70;;
67508;SDS011;54354;44.724;11.284;2023-02-01T14:58:30;31.05;;;16.35;;
67508;SDS011;54354;44.724;11.284;2023-02-01T15:12:14;29.67;;;15.90;;
67508;SDS011;54354;44.724;11.284;2023-02-01T15:17:24;27.55;;;16.90;;
67508;SDS011;54354;44.724;11.284;2023-02-01T15:19:58;34.53;;;16.35;;
67508;SDS011;54354;44.724;11.284;2023-02-01T15:22:40;25.67;;;15.20;;
67508;SDS011;54354;44.724;11.284;2023-02-01T15:25:17;29.58;;;15.68;;
67508;SDS011;54354;44.724;11.284;2023-02-01T15:27:47;32.97;;;17.02;;
67508;SDS011;54354;44.724;11.284;2023-02-01T15:30:19;30.40;;;16.85;;
67508;SDS011;54354;44.724;11.284;2023-02-01T15:32:51;31.15;;;17.25;;
67508;SDS011;54354;44.724;11.284;2023-02-01T15:35:33;27.70;;;16.70;;
67508;SDS011;54354;44.724;11.284;2023-02-01T15:43:32;30.38;;;17.60;;
67508;SDS011;54354;44.724;11.284;2023-02-01T15:46:02;31.80;;;17.45;;
67508;SDS011;54354;44.724;11.284;2023-02-01T15:48:35;30.95;;;17.05;;
67508;SDS011;54354;44.724;11.284;2023-02-01T15:51:04;32.28;;;17.95;;
67508;SDS011;54354;44.724;11.284;2023-02-01T15:53:30;36.38;;;17.35;;
67508;SDS011;54354;44.724;11.284;2023-02-01T15:55:58;33.53;;;18.88;;
67508;SDS011;54354;44.724;11.284;2023-02-01T15:58:26;33.85;;;18.25;;
67508;SDS011;54354;44.724;11.284;2023-02-01T16:00:57;35.95;;;17.75;;
67508;SDS011;54354;44.724;11.284;2023-02-01T16:06:06;30.92;;;17.33;;
67508;SDS011;54354;44.724;11.284;2023-02-01T16:08:52;39.65;;;19.10;;
67508;SDS011;54354;44.724;11.284;2023-02-01T16:13:59;32.08;;;19.63;;
67508;SDS011;54354;44.724;11.284;2023-02-01T16:16:26;49.35;;;22.33;;
67508;SDS011;54354;44.724;11.284;2023-02-01T16:18:54;45.15;;;20.33;;
67508;SDS011;54354;44.724;11.284;2023-02-01T16:21:20;37.33;;;19.50;;
67508;SDS011;54354;44.724;11.284;2023-02-01T16:23:52;39.20;;;19.70;;
67508;SDS011;54354;44.724;11.284;2023-02-01T16:26:18;35.25;;;19.92;;
67508;SDS011;54354;44.724;11.284;2023-02-01T16:28:44;36.67;;;19.10;;
67508;SDS011;54354;44.724;11.284;2023-02-01T16:31:11;41.33;;;20.02;;
67508;SDS011;54354;44.724;11.284;2023-02-01T16:33:44;44.13;;;20.50;;
67508;SDS011;54354;44.724;11.284;2023-02-01T16:36:11;35.63;;;20.10;;
67508;SDS011;54354;44.724;11.284;2023-02-01T16:38:38;33.20;;;19.02;;
67508;SDS011;54354;44.724;11.284;2023-02-01T16:41:04;43.63;;;20.73;;
67508;SDS011;54354;44.724;11.284;2023-02-01T16:43:30;42.60;;;19.90;;
67508;SDS011;54354;44.724;11.284;2023-02-01T16:45:58;43.85;;;21.83;;
67508;SDS011;54354;44.724;11.284;2023-02-01T16:48:29;45.00;;;22.15;;
67508;SDS011;54354;44.724;11.284;2023-02-01T16:50:57;40.17;;;21.52;;
67508;SDS011;54354;44.724;11.284;2023-02-01T16:53:26;42.30;;;20.42;;
67508;SDS011;54354;44.724;11.284;2023-02-01T16:55:52;43.88;;;20.33;;
67508;SDS011;54354;44.724;11.284;2023-02-01T16:58:18;42.20;;;19.08;;
67508;SDS011;54354;44.724;11.284;2023-02-01T17:00:45;42.13;;;20.50;;
67508;SDS011;54354;44.724;11.284;2023-02-01T17:03:12;43.28;;;21.65;;
67508;SDS011;54354;44.724;11.284;2023-02-01T17:05:42;44.17;;;21.48;;
67508;SDS011;54354;44.724;11.284;2023-02-01T17:08:12;34.55;;;20.45;;
67508;SDS011;54354;44.724;11.284;2023-02-01T17:10:47;43.80;;;22.08;;
67508;SDS011;54354;44.724;11.284;2023-02-01T17:13:13;41.88;;;21.60;;
67508;SDS011;54354;44.724;11.284;2023-02-01T17:15:40;39.42;;;22.02;;
67508;SDS011;54354;44.724;11.284;2023-02-01T17:18:14;39.15;;;22.60;;
67508;SDS011;54354;44.724;11.284;2023-02-01T17:20:41;43.80;;;22.02;;
67508;SDS011;54354;44.724;11.284;2023-02-01T17:23:06;35.03;;;22.23;;